sensor_id;sensor_type;location;lat;lon;timestamp;P1;durP1;ratioP1;P2;durP2;ratioP2
73515;SDS011;61763;51.416;5.442;2024-01-30T00:01:59;12.45;;;5.75;;
73515;SDS011;61763;51.416;5.442;2024-01-30T00:04:24;10.77;;;5.22;;
73515;SDS011;61763;51.416;5.442;2024-01-30T00:06:50;12.32;;;5.75;;
73515;SDS011;61763;51.416;5.442;2024-01-30T00:11:43;11.00;;;4.97;;
73515;SDS011;61763;51.416;5.442;2024-01-30T00:14:08;11.02;;;5.53;;
73515;SDS011;61763;51.416;5.442;2024-01-30T00:16:33;11.73;;;5.30;;
73515;SDS011;61763;51.416;5.442;2024-01-30T00:18:59;15.25;;;6.22;;
73515;SDS011;61763;51.416;5.442;2024-01-30T00:21:26;16.75;;;8.10;;
73515;SDS011;61763;51.416;5.442;2024-01-30T00:23:51;16.42;;;8.10;;
73515;SDS011;61763;51.416;5.442;2024-01-30T00:26:16;14.85;;;7.40;;
73515;SDS011;61763;51.416;5.442;2024-01-30T00:28:42;14.85;;;6.57;;
73515;SDS011;61763;51.416;5.442;2024-01-30T00:31:07;13.32;;;6.05;;
73515;SDS011;61763;51.416;5.442;2024-01-30T00:33:37;15.20;;;6.60;;
73515;SDS011;61763;51.416;5.442;2024-01-30T00:36:05;15.23;;;7.05;;
73515;SDS011;61763;51.416;5.442;2024-01-30T00:38:32;14.27;;;6.68;;
73515;SDS011;61763;51.416;5.442;2024-01-30T00:40:57;16.15;;;7.47;;
73515;SDS011;61763;51.416;5.442;2024-01-30T00:43:23;15.98;;;7.07;;
73515;SDS011;61763;51.416;5.442;2024-01-30T00:45:49;17.40;;;8.10;;
73515;SDS011;61763;51.416;5.442;2024-01-30T00:48:17;15.95;;;7.15;;
73515;SDS011;61763;51.416;5.442;2024-01-30T00:50:42;16.45;;;7.20;;
73515;SDS011;61763;51.416;5.442;2024-01-30T00:53:08;16.95;;;8.18;;
73515;SDS011;61763;51.416;5.442;2024-01-30T00:55:33;15.55;;;7.85;;
73515;SDS011;61763;51.416;5.442;2024-01-30T00:57:58;13.90;;;6.18;;
73515;SDS011;61763;51.416;5.442;2024-01-30T01:00:24;16.27;;;7.47;;
73515;SDS011;61763;51.416;5.442;2024-01-30T01:02:54;11.77;;;5.53;;
73515;SDS011;61763;51.416;5.442;2024-01-30T01:05:20;11.73;;;5.28;;
73515;SDS011;61763;51.416;5.442;2024-01-30T01:07:45;13.27;;;6.85;;
73515;SDS011;61763;51.416;5.442;2024-01-30T01:10:12;12.15;;;6.38;;
73515;SDS011;61763;51.416;5.442;2024-01-30T01:12:38;12.40;;;6.25;;
73515;SDS011;61763;51.416;5.442;2024-01-30T01:15:04;11.40;;;5.53;;
73515;SDS011;61763;51.416;5.442;2024-01-30T01:17:30;14.57;;;5.78;;
73515;SDS011;61763;51.416;5.442;2024-01-30T01:19:56;12.23;;;5.65;;
73515;SDS011;61763;51.416;5.442;2024-01-30T01:22:22;11.93;;;4.97;;
73515;SDS011;61763;51.416;5.442;2024-01-30T01:24:47;13.55;;;5.68;;
73515;SDS011;61763;51.416;5.442;2024-01-30T01:27:13;10.68;;;5.63;;
73515;SDS011;61763;51.416;5.442;2024-01-30T01:29:38;11.98;;;5.57;;
73515;SDS011;61763;51.416;5.442;2024-01-30T01:32:04;12.55;;;5.28;;
73515;SDS011;61763;51.416;5.442;2024-01-30T01:34:29;11.68;;;5.18;;
73515;SDS011;61763;51.416;5.442;2024-01-30T01:36:55;13.20;;;5.93;;
73515;SDS011;61763;51.416;5.442;2024-01-30T01:39:21;11.10;;;5.57;;
73515;SDS011;61763;51.416;5.442;2024-01-30T01:41:48;13.52;;;5.68;;
73515;SDS011;61763;51.416;5.442;2024-01-30T01:44:14;14.18;;;6.25;;
73515;SDS011;61763;51.416;5.442;2024-01-30T01:46:39;12.73;;;5.57;;
73515;SDS011;61763;51.416;5.442;2024-01-30T01:49:05;15.65;;;5.97;;
73515;SDS011;61763;51.416;5.442;2024-01-30T01:51:33;12.43;;;5.50;;
73515;SDS011;61763;51.416;5.442;2024-01-30T01:54:02;10.60;;;4.80;;
73515;SDS011;61763;51.416;5.442;2024-01-30T01:56:30;11.93;;;4.65;;
73515;SDS011;61763;51.416;5.442;2024-01-30T01:58:58;11.13;;;4.95;;
73515;SDS011;61763;51.416;5.442;2024-01-30T02:01:27;13.75;;;5.93;;
73515;SDS011;61763;51.416;5.442;2024-01-30T02:03:54;12.40;;;5.53;;
73515;SDS011;61763;51.416;5.442;2024-01-30T02:06:19;12.40;;;4.53;;
73515;SDS011;61763;51.416;5.442;2024-01-30T02:08:45;11.98;;;5.22;;
73515;SDS011;61763;51.416;5.442;2024-01-30T02:11:10;11.88;;;4.90;;
73515;SDS011;61763;51.416;5.442;2024-01-30T02:13:36;10.52;;;4.63;;
73515;SDS011;61763;51.416;5.442;2024-01-30T02:16:02;11.55;;;4.93;;
73515;SDS011;61763;51.416;5.442;2024-01-30T02:18:27;12.15;;;4.80;;
73515;SDS011;61763;51.416;5.442;2024-01-30T02:20:54;12.13;;;5.35;;
73515;SDS011;61763;51.416;5.442;2024-01-30T02:23:23;11.35;;;5.13;;
73515;SDS011;61763;51.416;5.442;2024-01-30T02:25:52;10.95;;;4.88;;
73515;SDS011;61763;51.416;5.442;2024-01-30T02:28:18;12.55;;;4.63;;
73515;SDS011;61763;51.416;5.442;2024-01-30T02:30:44;9.68;;;4.82;;
73515;SDS011;61763;51.416;5.442;2024-01-30T02:33:11;11.82;;;4.70;;
73515;SDS011;61763;51.416;5.442;2024-01-30T02:35:36;12.25;;;4.80;;
73515;SDS011;61763;51.416;5.442;2024-01-30T02:38:02;12.35;;;4.22;;
73515;SDS011;61763;51.416;5.442;2024-01-30T02:40:27;7.65;;;3.42;;
73515;SDS011;61763;51.416;5.442;2024-01-30T02:42:52;11.90;;;5.05;;
73515;SDS011;61763;51.416;5.442;2024-01-30T02:45:18;9.85;;;4.85;;
73515;SDS011;61763;51.416;5.442;2024-01-30T02:47:43;10.35;;;4.93;;
73515;SDS011;61763;51.416;5.442;2024-01-30T02:50:09;10.85;;;4.35;;
73515;SDS011;61763;51.416;5.442;2024-01-30T02:52:34;10.55;;;4.90;;
73515;SDS011;61763;51.416;5.442;2024-01-30T02:55:00;10.82;;;4.72;;
73515;SDS011;61763;51.416;5.442;2024-01-30T02:57:27;8.38;;;4.03;;
73515;SDS011;61763;51.416;5.442;2024-01-30T02:59:52;11.35;;;4.97;;
73515;SDS011;61763;51.416;5.442;2024-01-30T03:02:18;9.43;;;4.40;;
73515;SDS011;61763;51.416;5.442;2024-01-30T03:04:43;11.15;;;4.43;;
73515;SDS011;61763;51.416;5.442;2024-01-30T03:07:09;11.05;;;4.90;;
73515;SDS011;61763;51.416;5.442;2024-01-30T03:09:36;10.63;;;5.10;;
73515;SDS011;61763;51.416;5.442;2024-01-30T03:12:01;9.77;;;3.80;;
73515;SDS011;61763;51.416;5.442;2024-01-30T03:14:27;11.70;;;4.75;;
73515;SDS011;61763;51.416;5.442;2024-01-30T03:16:53;11.30;;;4.38;;
73515;SDS011;61763;51.416;5.442;2024-01-30T03:19:19;8.95;;;3.33;;
73515;SDS011;61763;51.416;5.442;2024-01-30T03:21:44;13.50;;;4.28;;
73515;SDS011;61763;51.416;5.442;2024-01-30T03:24:09;9.82;;;4.10;;
73515;SDS011;61763;51.416;5.442;2024-01-30T03:26:35;11.50;;;4.47;;
73515;SDS011;61763;51.416;5.442;2024-01-30T03:29:00;10.20;;;4.15;;
73515;SDS011;61763;51.416;5.442;2024-01-30T03:31:26;10.57;;;3.58;;
73515;SDS011;61763;51.416;5.442;2024-01-30T03:33:51;11.98;;;4.28;;
73515;SDS011;61763;51.416;5.442;2024-01-30T03:36:16;9.80;;;3.88;;
73515;SDS011;61763;51.416;5.442;2024-01-30T03:38:42;8.60;;;4.50;;
73515;SDS011;61763;51.416;5.442;2024-01-30T03:41:08;11.15;;;4.38;;
73515;SDS011;61763;51.416;5.442;2024-01-30T03:43:34;8.25;;;4.20;;
73515;SDS011;61763;51.416;5.442;2024-01-30T03:46:00;8.27;;;3.53;;
73515;SDS011;61763;51.416;5.442;2024-01-30T03:48:26;8.57;;;3.22;;
73515;SDS011;61763;51.416;5.442;2024-01-30T03:50:52;7.70;;;3.50;;
73515;SDS011;61763;51.416;5.442;2024-01-30T03:53:17;8.20;;;3.33;;
73515;SDS011;61763;51.416;5.442;2024-01-30T03:55:42;7.70;;;3.42;;
73515;SDS011;61763;51.416;5.442;2024-01-30T03:58:08;14.80;;;4.22;;
73515;SDS011;61763;51.416;5.442;2024-01-30T04:00:33;7.63;;;3.55;;
73515;SDS011;61763;51.416;5.442;2024-01-30T04:02:59;10.35;;;3.67;;
73515;SDS011;61763;51.416;5.442;2024-01-30T04:05:24;8.23;;;3.80;;
73515;SDS011;61763;51.416;5.442;2024-01-30T04:07:49;7.75;;;3.33;;
73515;SDS011;61763;51.416;5.442;2024-01-30T04:10:15;6.18;;;3.00;;
73515;SDS011;61763;51.416;5.442;2024-01-30T04:12:41;7.57;;;3.67;;
73515;SDS011;61763;51.416;5.442;2024-01-30T04:15:06;8.57;;;3.03;;
73515;SDS011;61763;51.416;5.442;2024-01-30T04:17:32;6.63;;;2.53;;
73515;SDS011;61763;51.416;5.442;2024-01-30T04:19:58;7.32;;;2.72;;
73515;SDS011;61763;51.416;5.442;2024-01-30T04:22:23;7.15;;;3.78;;
73515;SDS011;61763;51.416;5.442;2024-01-30T04:24:48;7.88;;;2.95;;
73515;SDS011;61763;51.416;5.442;2024-01-30T04:27:14;5.95;;;2.97;;
73515;SDS011;61763;51.416;5.442;2024-01-30T04:29:39;11.48;;;3.17;;
73515;SDS011;61763;51.416;5.442;2024-01-30T04:32:04;7.25;;;3.22;;
73515;SDS011;61763;51.416;5.442;2024-01-30T04:34:30;8.10;;;3.58;;
73515;SDS011;61763;51.416;5.442;2024-01-30T04:36:55;6.00;;;2.55;;
73515;SDS011;61763;51.416;5.442;2024-01-30T04:39:22;7.22;;;2.70;;
73515;SDS011;61763;51.416;5.442;2024-01-30T04:41:47;6.57;;;2.92;;
73515;SDS011;61763;51.416;5.442;2024-01-30T04:44:13;8.18;;;3.35;;
73515;SDS011;61763;51.416;5.442;2024-01-30T04:46:38;6.95;;;2.45;;
73515;SDS011;61763;51.416;5.442;2024-01-30T04:49:04;6.60;;;2.92;;
73515;SDS011;61763;51.416;5.442;2024-01-30T04:51:29;6.63;;;2.90;;
73515;SDS011;61763;51.416;5.442;2024-01-30T04:53:55;5.30;;;2.45;;
73515;SDS011;61763;51.416;5.442;2024-01-30T04:56:20;6.25;;;2.95;;
73515;SDS011;61763;51.416;5.442;2024-01-30T04:58:45;7.05;;;2.58;;
73515;SDS011;61763;51.416;5.442;2024-01-30T05:01:14;7.03;;;3.70;;
73515;SDS011;61763;51.416;5.442;2024-01-30T05:03:41;7.22;;;3.15;;
73515;SDS011;61763;51.416;5.442;2024-01-30T05:06:06;6.18;;;3.13;;
73515;SDS011;61763;51.416;5.442;2024-01-30T05:08:31;6.03;;;2.40;;
73515;SDS011;61763;51.416;5.442;2024-01-30T05:10:59;7.07;;;2.60;;
73515;SDS011;61763;51.416;5.442;2024-01-30T05:13:25;5.78;;;3.03;;
73515;SDS011;61763;51.416;5.442;2024-01-30T05:15:50;6.05;;;2.78;;
73515;SDS011;61763;51.416;5.442;2024-01-30T05:18:16;6.80;;;3.22;;
73515;SDS011;61763;51.416;5.442;2024-01-30T05:20:41;7.50;;;2.95;;
73515;SDS011;61763;51.416;5.442;2024-01-30T05:23:07;7.03;;;2.63;;
73515;SDS011;61763;51.416;5.442;2024-01-30T05:25:33;6.03;;;2.53;;
73515;SDS011;61763;51.416;5.442;2024-01-30T05:27:58;7.13;;;2.80;;
73515;SDS011;61763;51.416;5.442;2024-01-30T05:30:23;9.85;;;3.60;;
73515;SDS011;61763;51.416;5.442;2024-01-30T05:32:49;9.50;;;3.35;;
73515;SDS011;61763;51.416;5.442;2024-01-30T05:35:14;7.93;;;2.88;;
73515;SDS011;61763;51.416;5.442;2024-01-30T05:37:40;8.40;;;2.47;;
73515;SDS011;61763;51.416;5.442;2024-01-30T05:40:05;6.13;;;2.63;;
73515;SDS011;61763;51.416;5.442;2024-01-30T05:42:31;8.27;;;3.10;;
73515;SDS011;61763;51.416;5.442;2024-01-30T05:44:57;6.65;;;2.42;;
73515;SDS011;61763;51.416;5.442;2024-01-30T05:47:22;6.70;;;2.83;;
73515;SDS011;61763;51.416;5.442;2024-01-30T05:49:47;7.60;;;2.42;;
73515;SDS011;61763;51.416;5.442;2024-01-30T05:52:13;4.97;;;2.63;;
73515;SDS011;61763;51.416;5.442;2024-01-30T05:54:40;5.18;;;2.45;;
73515;SDS011;61763;51.416;5.442;2024-01-30T05:57:05;5.75;;;2.88;;
73515;SDS011;61763;51.416;5.442;2024-01-30T05:59:30;4.65;;;2.03;;
73515;SDS011;61763;51.416;5.442;2024-01-30T06:01:56;6.47;;;2.88;;
73515;SDS011;61763;51.416;5.442;2024-01-30T06:04:21;7.03;;;2.22;;
73515;SDS011;61763;51.416;5.442;2024-01-30T06:06:47;7.93;;;2.70;;
73515;SDS011;61763;51.416;5.442;2024-01-30T06:09:12;6.88;;;2.60;;
73515;SDS011;61763;51.416;5.442;2024-01-30T06:11:38;6.95;;;2.65;;
73515;SDS011;61763;51.416;5.442;2024-01-30T06:14:03;6.90;;;2.13;;
73515;SDS011;61763;51.416;5.442;2024-01-30T06:16:29;7.47;;;2.88;;
73515;SDS011;61763;51.416;5.442;2024-01-30T06:18:54;6.75;;;2.70;;
73515;SDS011;61763;51.416;5.442;2024-01-30T06:21:20;7.80;;;3.00;;
73515;SDS011;61763;51.416;5.442;2024-01-30T06:23:46;9.95;;;2.67;;
73515;SDS011;61763;51.416;5.442;2024-01-30T06:26:11;5.07;;;2.17;;
73515;SDS011;61763;51.416;5.442;2024-01-30T06:28:36;6.22;;;2.65;;
73515;SDS011;61763;51.416;5.442;2024-01-30T06:31:02;7.38;;;3.00;;
73515;SDS011;61763;51.416;5.442;2024-01-30T06:33:27;8.23;;;2.75;;
73515;SDS011;61763;51.416;5.442;2024-01-30T06:35:53;7.43;;;2.63;;
73515;SDS011;61763;51.416;5.442;2024-01-30T06:38:18;5.47;;;2.30;;
73515;SDS011;61763;51.416;5.442;2024-01-30T06:40:44;4.82;;;2.20;;
73515;SDS011;61763;51.416;5.442;2024-01-30T06:43:09;6.28;;;2.58;;
73515;SDS011;61763;51.416;5.442;2024-01-30T06:45:34;5.93;;;2.75;;
73515;SDS011;61763;51.416;5.442;2024-01-30T06:48:00;7.20;;;2.78;;
73515;SDS011;61763;51.416;5.442;2024-01-30T06:50:26;7.10;;;3.20;;
73515;SDS011;61763;51.416;5.442;2024-01-30T06:52:51;5.78;;;2.45;;
73515;SDS011;61763;51.416;5.442;2024-01-30T06:55:17;8.60;;;2.90;;
73515;SDS011;61763;51.416;5.442;2024-01-30T06:57:43;6.82;;;2.63;;
73515;SDS011;61763;51.416;5.442;2024-01-30T07:00:08;6.55;;;2.85;;
73515;SDS011;61763;51.416;5.442;2024-01-30T07:02:34;6.45;;;2.83;;
73515;SDS011;61763;51.416;5.442;2024-01-30T07:05:00;6.20;;;2.45;;
73515;SDS011;61763;51.416;5.442;2024-01-30T07:07:25;7.35;;;3.05;;
73515;SDS011;61763;51.416;5.442;2024-01-30T07:09:51;6.43;;;2.92;;
73515;SDS011;61763;51.416;5.442;2024-01-30T07:12:21;7.75;;;3.08;;
73515;SDS011;61763;51.416;5.442;2024-01-30T07:14:47;8.43;;;2.75;;
73515;SDS011;61763;51.416;5.442;2024-01-30T07:17:13;6.50;;;2.08;;
73515;SDS011;61763;51.416;5.442;2024-01-30T07:19:38;5.85;;;3.25;;
73515;SDS011;61763;51.416;5.442;2024-01-30T07:22:04;6.22;;;2.42;;
73515;SDS011;61763;51.416;5.442;2024-01-30T07:24:29;6.40;;;2.78;;
73515;SDS011;61763;51.416;5.442;2024-01-30T07:26:54;5.60;;;2.42;;
73515;SDS011;61763;51.416;5.442;2024-01-30T07:29:20;6.45;;;2.70;;
73515;SDS011;61763;51.416;5.442;2024-01-30T07:31:45;7.30;;;2.22;;
73515;SDS011;61763;51.416;5.442;2024-01-30T07:34:11;7.63;;;2.90;;
73515;SDS011;61763;51.416;5.442;2024-01-30T07:36:37;6.88;;;2.42;;
73515;SDS011;61763;51.416;5.442;2024-01-30T07:39:02;7.43;;;2.58;;
73515;SDS011;61763;51.416;5.442;2024-01-30T07:41:29;6.88;;;2.70;;
73515;SDS011;61763;51.416;5.442;2024-01-30T07:43:54;6.28;;;3.22;;
73515;SDS011;61763;51.416;5.442;2024-01-30T07:46:20;5.38;;;3.10;;
73515;SDS011;61763;51.416;5.442;2024-01-30T07:48:45;5.90;;;2.90;;
73515;SDS011;61763;51.416;5.442;2024-01-30T07:51:10;8.85;;;3.45;;
73515;SDS011;61763;51.416;5.442;2024-01-30T07:53:36;9.55;;;3.10;;
73515;SDS011;61763;51.416;5.442;2024-01-30T07:56:01;7.70;;;3.22;;
73515;SDS011;61763;51.416;5.442;2024-01-30T07:58:27;7.05;;;3.33;;
73515;SDS011;61763;51.416;5.442;2024-01-30T08:00:53;6.13;;;3.08;;
73515;SDS011;61763;51.416;5.442;2024-01-30T08:03:18;7.97;;;3.20;;
73515;SDS011;61763;51.416;5.442;2024-01-30T08:05:44;5.95;;;3.25;;
73515;SDS011;61763;51.416;5.442;2024-01-30T08:08:09;7.00;;;3.35;;
73515;SDS011;61763;51.416;5.442;2024-01-30T08:10:35;9.38;;;3.63;;
73515;SDS011;61763;51.416;5.442;2024-01-30T08:13:01;7.80;;;3.33;;
73515;SDS011;61763;51.416;5.442;2024-01-30T08:15:26;9.27;;;3.17;;
73515;SDS011;61763;51.416;5.442;2024-01-30T08:17:52;10.27;;;3.78;;
73515;SDS011;61763;51.416;5.442;2024-01-30T08:20:22;10.05;;;3.40;;
73515;SDS011;61763;51.416;5.442;2024-01-30T08:22:48;9.35;;;3.28;;
73515;SDS011;61763;51.416;5.442;2024-01-30T08:25:13;9.55;;;3.28;;
73515;SDS011;61763;51.416;5.442;2024-01-30T08:27:39;7.57;;;3.13;;
73515;SDS011;61763;51.416;5.442;2024-01-30T08:30:08;9.13;;;3.63;;
73515;SDS011;61763;51.416;5.442;2024-01-30T08:32:33;7.00;;;3.75;;
73515;SDS011;61763;51.416;5.442;2024-01-30T08:34:59;9.35;;;3.47;;
73515;SDS011;61763;51.416;5.442;2024-01-30T08:37:26;8.15;;;3.20;;
73515;SDS011;61763;51.416;5.442;2024-01-30T08:39:51;10.32;;;3.30;;
73515;SDS011;61763;51.416;5.442;2024-01-30T08:42:17;8.77;;;3.60;;
73515;SDS011;61763;51.416;5.442;2024-01-30T08:44:47;7.28;;;3.72;;
73515;SDS011;61763;51.416;5.442;2024-01-30T08:47:13;9.18;;;3.08;;
73515;SDS011;61763;51.416;5.442;2024-01-30T08:49:38;7.75;;;3.30;;
73515;SDS011;61763;51.416;5.442;2024-01-30T08:52:03;8.43;;;3.40;;
73515;SDS011;61763;51.416;5.442;2024-01-30T08:54:29;6.72;;;3.38;;
73515;SDS011;61763;51.416;5.442;2024-01-30T08:56:54;7.22;;;3.22;;
73515;SDS011;61763;51.416;5.442;2024-01-30T08:59:24;8.25;;;2.53;;
73515;SDS011;61763;51.416;5.442;2024-01-30T09:01:49;8.13;;;3.55;;
73515;SDS011;61763;51.416;5.442;2024-01-30T09:04:18;8.00;;;3.08;;
73515;SDS011;61763;51.416;5.442;2024-01-30T09:06:44;8.88;;;3.30;;
73515;SDS011;61763;51.416;5.442;2024-01-30T09:09:10;7.90;;;3.50;;
73515;SDS011;61763;51.416;5.442;2024-01-30T09:11:35;7.80;;;3.25;;
73515;SDS011;61763;51.416;5.442;2024-01-30T09:14:01;8.88;;;3.40;;
73515;SDS011;61763;51.416;5.442;2024-01-30T09:16:26;8.05;;;3.45;;
73515;SDS011;61763;51.416;5.442;2024-01-30T09:18:51;11.40;;;3.92;;
73515;SDS011;61763;51.416;5.442;2024-01-30T09:21:17;6.10;;;2.60;;
73515;SDS011;61763;51.416;5.442;2024-01-30T09:23:42;8.75;;;3.35;;
73515;SDS011;61763;51.416;5.442;2024-01-30T09:26:08;8.75;;;3.25;;
73515;SDS011;61763;51.416;5.442;2024-01-30T09:28:33;8.05;;;3.15;;
73515;SDS011;61763;51.416;5.442;2024-01-30T09:30:58;9.85;;;3.08;;
73515;SDS011;61763;51.416;5.442;2024-01-30T09:33:24;11.20;;;3.30;;
73515;SDS011;61763;51.416;5.442;2024-01-30T09:35:49;6.07;;;2.55;;
73515;SDS011;61763;51.416;5.442;2024-01-30T09:38:16;7.80;;;2.88;;
73515;SDS011;61763;51.416;5.442;2024-01-30T09:40:41;6.80;;;3.50;;
73515;SDS011;61763;51.416;5.442;2024-01-30T09:43:07;6.80;;;3.05;;
73515;SDS011;61763;51.416;5.442;2024-01-30T09:45:32;7.05;;;2.95;;
73515;SDS011;61763;51.416;5.442;2024-01-30T09:47:59;6.07;;;2.53;;
73515;SDS011;61763;51.416;5.442;2024-01-30T09:50:25;7.90;;;2.58;;
73515;SDS011;61763;51.416;5.442;2024-01-30T09:52:52;8.88;;;3.40;;
73515;SDS011;61763;51.416;5.442;2024-01-30T09:55:20;8.48;;;3.45;;
73515;SDS011;61763;51.416;5.442;2024-01-30T09:57:45;7.78;;;3.25;;
73515;SDS011;61763;51.416;5.442;2024-01-30T10:00:11;7.25;;;3.25;;
73515;SDS011;61763;51.416;5.442;2024-01-30T10:02:38;8.30;;;3.65;;
73515;SDS011;61763;51.416;5.442;2024-01-30T10:05:04;10.38;;;4.20;;
73515;SDS011;61763;51.416;5.442;2024-01-30T10:07:30;7.00;;;3.15;;
73515;SDS011;61763;51.416;5.442;2024-01-30T10:09:55;8.90;;;3.00;;
73515;SDS011;61763;51.416;5.442;2024-01-30T10:12:26;8.70;;;3.80;;
73515;SDS011;61763;51.416;5.442;2024-01-30T10:14:52;9.98;;;3.30;;
73515;SDS011;61763;51.416;5.442;2024-01-30T10:17:17;8.73;;;3.72;;
73515;SDS011;61763;51.416;5.442;2024-01-30T10:19:43;10.60;;;3.33;;
73515;SDS011;61763;51.416;5.442;2024-01-30T10:22:09;7.97;;;3.38;;
73515;SDS011;61763;51.416;5.442;2024-01-30T10:24:34;9.45;;;3.63;;
73515;SDS011;61763;51.416;5.442;2024-01-30T10:27:00;6.90;;;3.28;;
73515;SDS011;61763;51.416;5.442;2024-01-30T10:29:26;11.07;;;3.70;;
73515;SDS011;61763;51.416;5.442;2024-01-30T10:32:02;9.15;;;3.25;;
73515;SDS011;61763;51.416;5.442;2024-01-30T10:34:31;7.00;;;3.15;;
73515;SDS011;61763;51.416;5.442;2024-01-30T10:37:10;10.02;;;3.63;;
73515;SDS011;61763;51.416;5.442;2024-01-30T10:39:42;10.80;;;3.90;;
73515;SDS011;61763;51.416;5.442;2024-01-30T10:42:13;6.90;;;3.20;;
73515;SDS011;61763;51.416;5.442;2024-01-30T10:44:56;8.48;;;3.47;;
73515;SDS011;61763;51.416;5.442;2024-01-30T10:47:35;8.05;;;3.83;;
73515;SDS011;61763;51.416;5.442;2024-01-30T10:50:04;8.00;;;3.35;;
73515;SDS011;61763;51.416;5.442;2024-01-30T10:52:30;11.45;;;3.58;;
73515;SDS011;61763;51.416;5.442;2024-01-30T10:54:57;9.27;;;3.85;;
73515;SDS011;61763;51.416;5.442;2024-01-30T10:57:23;9.82;;;4.22;;
73515;SDS011;61763;51.416;5.442;2024-01-30T10:59:50;17.45;;;4.22;;
73515;SDS011;61763;51.416;5.442;2024-01-30T11:02:20;10.60;;;3.30;;
73515;SDS011;61763;51.416;5.442;2024-01-30T11:04:46;8.23;;;3.75;;
73515;SDS011;61763;51.416;5.442;2024-01-30T11:07:19;8.45;;;3.28;;
73515;SDS011;61763;51.416;5.442;2024-01-30T11:09:50;9.55;;;3.97;;
73515;SDS011;61763;51.416;5.442;2024-01-30T11:12:16;8.82;;;3.40;;
73515;SDS011;61763;51.416;5.442;2024-01-30T11:14:41;9.13;;;3.75;;
73515;SDS011;61763;51.416;5.442;2024-01-30T11:17:08;8.43;;;3.80;;
73515;SDS011;61763;51.416;5.442;2024-01-30T11:19:35;10.35;;;3.63;;
73515;SDS011;61763;51.416;5.442;2024-01-30T11:22:00;7.50;;;3.10;;
73515;SDS011;61763;51.416;5.442;2024-01-30T11:24:25;9.77;;;3.70;;
73515;SDS011;61763;51.416;5.442;2024-01-30T11:26:57;8.25;;;4.10;;
73515;SDS011;61763;51.416;5.442;2024-01-30T11:29:27;7.03;;;3.15;;
73515;SDS011;61763;51.416;5.442;2024-01-30T11:31:53;8.13;;;3.35;;
73515;SDS011;61763;51.416;5.442;2024-01-30T11:34:20;7.15;;;3.47;;
73515;SDS011;61763;51.416;5.442;2024-01-30T11:36:48;12.40;;;3.75;;
73515;SDS011;61763;51.416;5.442;2024-01-30T11:39:20;9.88;;;3.88;;
73515;SDS011;61763;51.416;5.442;2024-01-30T11:41:45;7.00;;;3.67;;
73515;SDS011;61763;51.416;5.442;2024-01-30T11:44:12;6.85;;;3.28;;
73515;SDS011;61763;51.416;5.442;2024-01-30T11:46:38;9.05;;;3.60;;
73515;SDS011;61763;51.416;5.442;2024-01-30T11:49:03;6.30;;;3.55;;
73515;SDS011;61763;51.416;5.442;2024-01-30T11:51:30;8.18;;;2.97;;
73515;SDS011;61763;51.416;5.442;2024-01-30T11:53:56;6.32;;;2.90;;
73515;SDS011;61763;51.416;5.442;2024-01-30T11:56:23;10.80;;;2.45;;
73515;SDS011;61763;51.416;5.442;2024-01-30T11:58:49;10.15;;;3.15;;
73515;SDS011;61763;51.416;5.442;2024-01-30T12:01:16;9.38;;;2.83;;
73515;SDS011;61763;51.416;5.442;2024-01-30T12:03:42;7.90;;;2.45;;
73515;SDS011;61763;51.416;5.442;2024-01-30T12:06:08;7.22;;;2.35;;
73515;SDS011;61763;51.416;5.442;2024-01-30T12:08:34;5.80;;;2.30;;
73515;SDS011;61763;51.416;5.442;2024-01-30T12:11:00;6.97;;;2.40;;
73515;SDS011;61763;51.416;5.442;2024-01-30T12:13:30;6.60;;;2.47;;
73515;SDS011;61763;51.416;5.442;2024-01-30T12:15:56;6.63;;;2.28;;
73515;SDS011;61763;51.416;5.442;2024-01-30T12:18:21;7.18;;;2.67;;
73515;SDS011;61763;51.416;5.442;2024-01-30T12:20:56;9.55;;;3.75;;
73515;SDS011;61763;51.416;5.442;2024-01-30T12:23:23;12.65;;;4.30;;
73515;SDS011;61763;51.416;5.442;2024-01-30T12:25:50;8.07;;;3.03;;
73515;SDS011;61763;51.416;5.442;2024-01-30T12:28:16;8.20;;;3.78;;
73515;SDS011;61763;51.416;5.442;2024-01-30T12:30:42;8.40;;;3.25;;
73515;SDS011;61763;51.416;5.442;2024-01-30T12:33:07;9.15;;;3.25;;
73515;SDS011;61763;51.416;5.442;2024-01-30T12:35:35;8.55;;;2.70;;
73515;SDS011;61763;51.416;5.442;2024-01-30T12:38:00;9.18;;;2.60;;
73515;SDS011;61763;51.416;5.442;2024-01-30T12:40:27;5.68;;;1.48;;
73515;SDS011;61763;51.416;5.442;2024-01-30T12:42:53;5.40;;;1.67;;
73515;SDS011;61763;51.416;5.442;2024-01-30T12:45:19;3.92;;;1.35;;
73515;SDS011;61763;51.416;5.442;2024-01-30T12:47:47;4.63;;;0.93;;
73515;SDS011;61763;51.416;5.442;2024-01-30T12:50:13;3.40;;;0.85;;
73515;SDS011;61763;51.416;5.442;2024-01-30T12:52:40;2.90;;;0.68;;
73515;SDS011;61763;51.416;5.442;2024-01-30T12:55:06;4.20;;;1.05;;
73515;SDS011;61763;51.416;5.442;2024-01-30T12:57:32;3.00;;;0.63;;
73515;SDS011;61763;51.416;5.442;2024-01-30T12:59:57;1.05;;;0.22;;
73515;SDS011;61763;51.416;5.442;2024-01-30T13:02:23;3.03;;;0.40;;
73515;SDS011;61763;51.416;5.442;2024-01-30T13:04:48;2.08;;;0.20;;
73515;SDS011;61763;51.416;5.442;2024-01-30T13:07:14;1.67;;;0.30;;
73515;SDS011;61763;51.416;5.442;2024-01-30T13:09:39;2.42;;;0.20;;
73515;SDS011;61763;51.416;5.442;2024-01-30T13:12:05;2.13;;;0.28;;
73515;SDS011;61763;51.416;5.442;2024-01-30T13:14:30;5.95;;;0.10;;
73515;SDS011;61763;51.416;5.442;2024-01-30T13:16:56;4.53;;;0.22;;
73515;SDS011;61763;51.416;5.442;2024-01-30T13:19:21;4.25;;;0.57;;
73515;SDS011;61763;51.416;5.442;2024-01-30T13:21:46;2.28;;;0.40;;
73515;SDS011;61763;51.416;5.442;2024-01-30T13:24:12;1.52;;;0.25;;
73515;SDS011;61763;51.416;5.442;2024-01-30T13:26:38;2.53;;;0.32;;
73515;SDS011;61763;51.416;5.442;2024-01-30T13:29:04;2.35;;;0.25;;
73515;SDS011;61763;51.416;5.442;2024-01-30T13:31:29;3.97;;;0.50;;
73515;SDS011;61763;51.416;5.442;2024-01-30T13:33:55;1.20;;;0.38;;
73515;SDS011;61763;51.416;5.442;2024-01-30T13:36:20;2.08;;;0.28;;
73515;SDS011;61763;51.416;5.442;2024-01-30T13:38:46;3.90;;;0.40;;
73515;SDS011;61763;51.416;5.442;2024-01-30T13:41:12;3.00;;;0.20;;
73515;SDS011;61763;51.416;5.442;2024-01-30T13:43:37;1.48;;;0.32;;
73515;SDS011;61763;51.416;5.442;2024-01-30T13:46:03;3.85;;;0.13;;
73515;SDS011;61763;51.416;5.442;2024-01-30T13:48:29;0.82;;;0.13;;
73515;SDS011;61763;51.416;5.442;2024-01-30T13:50:56;0.93;;;0.30;;
73515;SDS011;61763;51.416;5.442;2024-01-30T13:53:21;1.02;;;0.35;;
73515;SDS011;61763;51.416;5.442;2024-01-30T13:55:46;1.67;;;0.20;;
73515;SDS011;61763;51.416;5.442;2024-01-30T13:58:12;1.95;;;0.35;;
73515;SDS011;61763;51.416;5.442;2024-01-30T14:00:37;2.08;;;0.47;;
73515;SDS011;61763;51.416;5.442;2024-01-30T14:03:03;0.93;;;0.32;;
73515;SDS011;61763;51.416;5.442;2024-01-30T14:05:29;2.58;;;0.22;;
73515;SDS011;61763;51.416;5.442;2024-01-30T14:07:55;2.17;;;0.20;;
73515;SDS011;61763;51.416;5.442;2024-01-30T14:10:22;2.13;;;0.20;;
73515;SDS011;61763;51.416;5.442;2024-01-30T14:12:48;2.88;;;0.47;;
73515;SDS011;61763;51.416;5.442;2024-01-30T14:15:13;2.13;;;0.40;;
73515;SDS011;61763;51.416;5.442;2024-01-30T14:17:45;1.25;;;0.30;;
73515;SDS011;61763;51.416;5.442;2024-01-30T14:20:13;2.03;;;0.43;;
73515;SDS011;61763;51.416;5.442;2024-01-30T14:22:39;3.05;;;0.25;;
73515;SDS011;61763;51.416;5.442;2024-01-30T14:25:04;2.13;;;0.25;;
73515;SDS011;61763;51.416;5.442;2024-01-30T14:27:30;2.20;;;0.30;;
73515;SDS011;61763;51.416;5.442;2024-01-30T14:29:56;3.53;;;0.22;;
73515;SDS011;61763;51.416;5.442;2024-01-30T14:32:22;2.90;;;0.95;;
73515;SDS011;61763;51.416;5.442;2024-01-30T14:34:48;1.30;;;0.43;;
73515;SDS011;61763;51.416;5.442;2024-01-30T14:37:14;2.53;;;0.32;;
73515;SDS011;61763;51.416;5.442;2024-01-30T14:39:39;1.88;;;0.22;;